sensor_id;sensor_type;location;lat;lon;timestamp;P1;durP1;ratioP1;P2;durP2;ratioP2
61806;SDS011;47726;52.766;6.606;2023-03-14T00:00:58;23.20;;;4.93;;
61806;SDS011;47726;52.766;6.606;2023-03-14T00:03:24;23.85;;;5.35;;
61806;SDS011;47726;52.766;6.606;2023-03-14T00:05:49;21.60;;;4.75;;
61806;SDS011;47726;52.766;6.606;2023-03-14T00:08:15;22.33;;;5.13;;
61806;SDS011;47726;52.766;6.606;2023-03-14T00:10:41;21.52;;;5.10;;
61806;SDS011;47726;52.766;6.606;2023-03-14T00:13:06;22.88;;;5.35;;
61806;SDS011;47726;52.766;6.606;2023-03-14T00:15:33;25.23;;;5.32;;
61806;SDS011;47726;52.766;6.606;2023-03-14T00:17:59;24.63;;;5.35;;
61806;SDS011;47726;52.766;6.606;2023-03-14T00:20:25;23.50;;;5.00;;
61806;SDS011;47726;52.766;6.606;2023-03-14T00:22:50;26.48;;;4.80;;
61806;SDS011;47726;52.766;6.606;2023-03-14T00:25:16;20.30;;;4.75;;
61806;SDS011;47726;52.766;6.606;2023-03-14T00:27:42;20.52;;;4.95;;
61806;SDS011;47726;52.766;6.606;2023-03-14T00:30:08;21.40;;;4.40;;
61806;SDS011;47726;52.766;6.606;2023-03-14T00:32:34;24.33;;;5.53;;
61806;SDS011;47726;52.766;6.606;2023-03-14T00:35:00;23.65;;;5.88;;
61806;SDS011;47726;52.766;6.606;2023-03-14T00:37:26;22.65;;;5.85;;
61806;SDS011;47726;52.766;6.606;2023-03-14T00:39:51;21.88;;;5.53;;
61806;SDS011;47726;52.766;6.606;2023-03-14T00:42:17;19.80;;;5.40;;
61806;SDS011;47726;52.766;6.606;2023-03-14T00:44:42;20.65;;;5.70;;
61806;SDS011;47726;52.766;6.606;2023-03-14T00:47:08;20.60;;;5.78;;
61806;SDS011;47726;52.766;6.606;2023-03-14T00:49:34;21.80;;;5.80;;
61806;SDS011;47726;52.766;6.606;2023-03-14T00:51:59;16.73;;;5.28;;
61806;SDS011;47726;52.766;6.606;2023-03-14T00:54:25;17.08;;;5.53;;
61806;SDS011;47726;52.766;6.606;2023-03-14T00:56:50;16.63;;;5.45;;
61806;SDS011;47726;52.766;6.606;2023-03-14T00:59:16;17.15;;;6.15;;
61806;SDS011;47726;52.766;6.606;2023-03-14T01:01:42;20.80;;;5.90;;
61806;SDS011;47726;52.766;6.606;2023-03-14T01:04:08;15.52;;;5.90;;
61806;SDS011;47726;52.766;6.606;2023-03-14T01:06:34;21.05;;;6.40;;
61806;SDS011;47726;52.766;6.606;2023-03-14T01:09:00;18.50;;;5.80;;
61806;SDS011;47726;52.766;6.606;2023-03-14T01:11:27;16.92;;;5.88;;
61806;SDS011;47726;52.766;6.606;2023-03-14T01:13:54;18.55;;;5.45;;
61806;SDS011;47726;52.766;6.606;2023-03-14T01:16:21;16.50;;;5.50;;
61806;SDS011;47726;52.766;6.606;2023-03-14T01:18:48;20.85;;;5.85;;
61806;SDS011;47726;52.766;6.606;2023-03-14T01:21:19;22.90;;;6.22;;
61806;SDS011;47726;52.766;6.606;2023-03-14T01:23:46;21.02;;;5.30;;
61806;SDS011;47726;52.766;6.606;2023-03-14T01:26:14;18.55;;;5.75;;
61806;SDS011;47726;52.766;6.606;2023-03-14T01:28:44;22.00;;;5.90;;
61806;SDS011;47726;52.766;6.606;2023-03-14T01:31:11;17.33;;;4.55;;
61806;SDS011;47726;52.766;6.606;2023-03-14T01:33:37;19.52;;;4.47;;
61806;SDS011;47726;52.766;6.606;2023-03-14T01:36:03;18.75;;;4.63;;
61806;SDS011;47726;52.766;6.606;2023-03-14T01:38:33;18.73;;;4.65;;
61806;SDS011;47726;52.766;6.606;2023-03-14T01:41:00;17.70;;;4.72;;
61806;SDS011;47726;52.766;6.606;2023-03-14T01:43:27;23.42;;;4.88;;
61806;SDS011;47726;52.766;6.606;2023-03-14T01:46:09;20.38;;;4.88;;
61806;SDS011;47726;52.766;6.606;2023-03-14T01:51:19;20.25;;;4.43;;
61806;SDS011;47726;52.766;6.606;2023-03-14T01:54:07;22.38;;;4.93;;
61806;SDS011;47726;52.766;6.606;2023-03-14T01:56:40;19.60;;;5.10;;
61806;SDS011;47726;52.766;6.606;2023-03-14T01:59:08;19.83;;;5.20;;
61806;SDS011;47726;52.766;6.606;2023-03-14T02:01:35;19.55;;;5.45;;
61806;SDS011;47726;52.766;6.606;2023-03-14T02:04:03;23.17;;;6.03;;
61806;SDS011;47726;52.766;6.606;2023-03-14T02:06:35;21.75;;;5.00;;
61806;SDS011;47726;52.766;6.606;2023-03-14T02:09:09;19.92;;;5.30;;
61806;SDS011;47726;52.766;6.606;2023-03-14T02:11:35;17.85;;;5.38;;
61806;SDS011;47726;52.766;6.606;2023-03-14T02:14:01;19.58;;;5.43;;
61806;SDS011;47726;52.766;6.606;2023-03-14T02:16:27;14.70;;;4.32;;
61806;SDS011;47726;52.766;6.606;2023-03-14T02:18:52;18.88;;;5.50;;
61806;SDS011;47726;52.766;6.606;2023-03-14T02:21:20;19.67;;;5.10;;
61806;SDS011;47726;52.766;6.606;2023-03-14T02:23:58;19.38;;;4.90;;
61806;SDS011;47726;52.766;6.606;2023-03-14T02:26:35;21.85;;;4.78;;
61806;SDS011;47726;52.766;6.606;2023-03-14T02:29:10;20.30;;;4.93;;
61806;SDS011;47726;52.766;6.606;2023-03-14T02:31:36;20.48;;;5.00;;
61806;SDS011;47726;52.766;6.606;2023-03-14T02:34:01;18.20;;;4.70;;
61806;SDS011;47726;52.766;6.606;2023-03-14T02:36:28;17.23;;;5.18;;
61806;SDS011;47726;52.766;6.606;2023-03-14T02:41:28;15.32;;;4.15;;
61806;SDS011;47726;52.766;6.606;2023-03-14T02:43:54;17.15;;;4.78;;
61806;SDS011;47726;52.766;6.606;2023-03-14T02:46:20;16.02;;;4.00;;
61806;SDS011;47726;52.766;6.606;2023-03-14T02:48:51;15.85;;;3.95;;
61806;SDS011;47726;52.766;6.606;2023-03-14T02:51:20;9.45;;;3.25;;
61806;SDS011;47726;52.766;6.606;2023-03-14T02:53:47;12.35;;;4.00;;
61806;SDS011;47726;52.766;6.606;2023-03-14T02:56:12;11.40;;;3.65;;
61806;SDS011;47726;52.766;6.606;2023-03-14T02:58:38;11.82;;;3.88;;
61806;SDS011;47726;52.766;6.606;2023-03-14T03:01:04;11.82;;;3.83;;
61806;SDS011;47726;52.766;6.606;2023-03-14T03:03:30;11.60;;;4.15;;
61806;SDS011;47726;52.766;6.606;2023-03-14T03:05:56;11.75;;;3.95;;
61806;SDS011;47726;52.766;6.606;2023-03-14T03:08:22;11.13;;;4.18;;
61806;SDS011;47726;52.766;6.606;2023-03-14T03:10:50;12.02;;;4.05;;
61806;SDS011;47726;52.766;6.606;2023-03-14T03:13:17;13.50;;;4.20;;
61806;SDS011;47726;52.766;6.606;2023-03-14T03:15:43;11.55;;;3.92;;
61806;SDS011;47726;52.766;6.606;2023-03-14T03:18:09;9.57;;;3.65;;
61806;SDS011;47726;52.766;6.606;2023-03-14T03:20:36;10.45;;;4.10;;
61806;SDS011;47726;52.766;6.606;2023-03-14T03:23:02;11.40;;;4.15;;
61806;SDS011;47726;52.766;6.606;2023-03-14T03:25:27;13.27;;;4.53;;
61806;SDS011;47726;52.766;6.606;2023-03-14T03:27:53;14.95;;;4.60;;
61806;SDS011;47726;52.766;6.606;2023-03-14T03:30:19;14.45;;;4.75;;
61806;SDS011;47726;52.766;6.606;2023-03-14T03:32:45;13.88;;;4.97;;
61806;SDS011;47726;52.766;6.606;2023-03-14T03:35:11;13.07;;;5.13;;
61806;SDS011;47726;52.766;6.606;2023-03-14T03:37:37;16.63;;;4.85;;
61806;SDS011;47726;52.766;6.606;2023-03-14T03:40:03;15.15;;;4.60;;
61806;SDS011;47726;52.766;6.606;2023-03-14T03:42:31;17.65;;;5.00;;
61806;SDS011;47726;52.766;6.606;2023-03-14T03:44:57;16.35;;;5.10;;
61806;SDS011;47726;52.766;6.606;2023-03-14T03:47:23;15.55;;;4.70;;
61806;SDS011;47726;52.766;6.606;2023-03-14T03:49:48;16.20;;;4.88;;
61806;SDS011;47726;52.766;6.606;2023-03-14T03:52:14;15.88;;;4.80;;
61806;SDS011;47726;52.766;6.606;2023-03-14T03:54:40;14.55;;;4.65;;
61806;SDS011;47726;52.766;6.606;2023-03-14T03:57:05;14.30;;;4.30;;
61806;SDS011;47726;52.766;6.606;2023-03-14T03:59:31;14.80;;;4.75;;
61806;SDS011;47726;52.766;6.606;2023-03-14T04:01:57;16.92;;;4.65;;
61806;SDS011;47726;52.766;6.606;2023-03-14T04:04:22;14.35;;;4.25;;
61806;SDS011;47726;52.766;6.606;2023-03-14T04:06:48;14.48;;;4.20;;
61806;SDS011;47726;52.766;6.606;2023-03-14T04:09:13;12.80;;;4.15;;
61806;SDS011;47726;52.766;6.606;2023-03-14T04:11:39;15.52;;;4.32;;
61806;SDS011;47726;52.766;6.606;2023-03-14T04:14:06;17.65;;;4.20;;
61806;SDS011;47726;52.766;6.606;2023-03-14T04:16:31;12.70;;;3.78;;
61806;SDS011;47726;52.766;6.606;2023-03-14T04:18:57;12.98;;;4.00;;
61806;SDS011;47726;52.766;6.606;2023-03-14T04:21:23;10.93;;;3.80;;
61806;SDS011;47726;52.766;6.606;2023-03-14T04:23:49;17.73;;;4.85;;
61806;SDS011;47726;52.766;6.606;2023-03-14T04:26:15;18.08;;;4.68;;
61806;SDS011;47726;52.766;6.606;2023-03-14T04:28:41;12.68;;;4.75;;
61806;SDS011;47726;52.766;6.606;2023-03-14T04:31:10;15.13;;;4.68;;
61806;SDS011;47726;52.766;6.606;2023-03-14T04:33:38;11.65;;;4.22;;
61806;SDS011;47726;52.766;6.606;2023-03-14T04:36:04;14.75;;;4.63;;
61806;SDS011;47726;52.766;6.606;2023-03-14T04:38:31;15.88;;;4.78;;
61806;SDS011;47726;52.766;6.606;2023-03-14T04:40:57;13.02;;;4.60;;
61806;SDS011;47726;52.766;6.606;2023-03-14T04:43:22;13.65;;;4.60;;
61806;SDS011;47726;52.766;6.606;2023-03-14T04:45:48;11.40;;;5.03;;
61806;SDS011;47726;52.766;6.606;2023-03-14T04:48:13;15.55;;;5.32;;
61806;SDS011;47726;52.766;6.606;2023-03-14T04:50:39;12.27;;;5.40;;
61806;SDS011;47726;52.766;6.606;2023-03-14T04:53:05;17.80;;;5.43;;
61806;SDS011;47726;52.766;6.606;2023-03-14T04:55:31;12.18;;;5.20;;
61806;SDS011;47726;52.766;6.606;2023-03-14T04:57:57;14.73;;;5.75;;
61806;SDS011;47726;52.766;6.606;2023-03-14T05:00:23;13.13;;;5.05;;
61806;SDS011;47726;52.766;6.606;2023-03-14T05:02:49;14.98;;;5.60;;
61806;SDS011;47726;52.766;6.606;2023-03-14T05:05:15;13.15;;;5.07;;
61806;SDS011;47726;52.766;6.606;2023-03-14T05:07:40;13.05;;;4.97;;
61806;SDS011;47726;52.766;6.606;2023-03-14T05:10:06;14.65;;;4.80;;
61806;SDS011;47726;52.766;6.606;2023-03-14T05:12:32;14.35;;;5.30;;
61806;SDS011;47726;52.766;6.606;2023-03-14T05:14:58;13.40;;;5.15;;
61806;SDS011;47726;52.766;6.606;2023-03-14T05:17:23;13.18;;;4.82;;
61806;SDS011;47726;52.766;6.606;2023-03-14T05:19:49;10.25;;;4.97;;
61806;SDS011;47726;52.766;6.606;2023-03-14T05:22:14;16.33;;;4.80;;
61806;SDS011;47726;52.766;6.606;2023-03-14T05:24:40;12.55;;;4.90;;
61806;SDS011;47726;52.766;6.606;2023-03-14T05:27:05;12.20;;;4.90;;
61806;SDS011;47726;52.766;6.606;2023-03-14T05:29:31;15.85;;;4.88;;
61806;SDS011;47726;52.766;6.606;2023-03-14T05:31:57;15.20;;;4.88;;
61806;SDS011;47726;52.766;6.606;2023-03-14T05:34:22;16.80;;;5.18;;
61806;SDS011;47726;52.766;6.606;2023-03-14T05:36:48;16.70;;;4.95;;
61806;SDS011;47726;52.766;6.606;2023-03-14T05:39:13;11.98;;;4.55;;
61806;SDS011;47726;52.766;6.606;2023-03-14T05:41:39;9.45;;;4.20;;
61806;SDS011;47726;52.766;6.606;2023-03-14T05:44:04;15.50;;;5.18;;
61806;SDS011;47726;52.766;6.606;2023-03-14T05:46:30;16.50;;;4.53;;
61806;SDS011;47726;52.766;6.606;2023-03-14T05:48:56;12.68;;;4.13;;
61806;SDS011;47726;52.766;6.606;2023-03-14T05:51:22;16.90;;;4.80;;
61806;SDS011;47726;52.766;6.606;2023-03-14T05:53:48;12.13;;;4.45;;
61806;SDS011;47726;52.766;6.606;2023-03-14T05:56:14;16.75;;;4.60;;
61806;SDS011;47726;52.766;6.606;2023-03-14T05:58:40;13.73;;;4.53;;
61806;SDS011;47726;52.766;6.606;2023-03-14T06:01:05;15.30;;;4.80;;
61806;SDS011;47726;52.766;6.606;2023-03-14T06:03:32;14.52;;;4.80;;
61806;SDS011;47726;52.766;6.606;2023-03-14T06:05:57;13.82;;;4.43;;
61806;SDS011;47726;52.766;6.606;2023-03-14T06:08:23;13.23;;;4.95;;
61806;SDS011;47726;52.766;6.606;2023-03-14T06:10:49;13.73;;;4.90;;
61806;SDS011;47726;52.766;6.606;2023-03-14T06:13:15;16.58;;;5.20;;
61806;SDS011;47726;52.766;6.606;2023-03-14T06:15:41;16.08;;;5.20;;
61806;SDS011;47726;52.766;6.606;2023-03-14T06:18:07;14.50;;;4.88;;
61806;SDS011;47726;52.766;6.606;2023-03-14T06:20:32;15.82;;;5.32;;
61806;SDS011;47726;52.766;6.606;2023-03-14T06:23:00;15.50;;;5.32;;
61806;SDS011;47726;52.766;6.606;2023-03-14T06:25:26;18.35;;;5.72;;
61806;SDS011;47726;52.766;6.606;2023-03-14T06:27:51;14.38;;;4.93;;
61806;SDS011;47726;52.766;6.606;2023-03-14T06:30:17;19.02;;;4.90;;
61806;SDS011;47726;52.766;6.606;2023-03-14T06:32:42;11.93;;;5.22;;
61806;SDS011;47726;52.766;6.606;2023-03-14T06:35:08;15.25;;;5.15;;
61806;SDS011;47726;52.766;6.606;2023-03-14T06:37:34;16.30;;;5.25;;
61806;SDS011;47726;52.766;6.606;2023-03-14T06:39:59;14.20;;;5.63;;
61806;SDS011;47726;52.766;6.606;2023-03-14T06:42:25;11.65;;;5.03;;
61806;SDS011;47726;52.766;6.606;2023-03-14T06:44:51;16.15;;;5.43;;
61806;SDS011;47726;52.766;6.606;2023-03-14T06:47:16;11.45;;;5.20;;
61806;SDS011;47726;52.766;6.606;2023-03-14T06:49:42;14.88;;;5.55;;
61806;SDS011;47726;52.766;6.606;2023-03-14T06:52:07;12.20;;;4.78;;
61806;SDS011;47726;52.766;6.606;2023-03-14T06:54:33;12.40;;;4.88;;
61806;SDS011;47726;52.766;6.606;2023-03-14T06:56:58;13.07;;;4.85;;
61806;SDS011;47726;52.766;6.606;2023-03-14T06:59:24;9.05;;;4.57;;
61806;SDS011;47726;52.766;6.606;2023-03-14T07:01:50;12.00;;;5.00;;
61806;SDS011;47726;52.766;6.606;2023-03-14T07:04:16;13.50;;;5.05;;
61806;SDS011;47726;52.766;6.606;2023-03-14T07:06:45;12.30;;;4.97;;
61806;SDS011;47726;52.766;6.606;2023-03-14T07:09:12;9.65;;;4.80;;
61806;SDS011;47726;52.766;6.606;2023-03-14T07:11:38;12.20;;;5.22;;
61806;SDS011;47726;52.766;6.606;2023-03-14T07:14:03;12.65;;;5.60;;
61806;SDS011;47726;52.766;6.606;2023-03-14T07:16:29;10.27;;;4.88;;
61806;SDS011;47726;52.766;6.606;2023-03-14T07:18:57;8.20;;;3.50;;
61806;SDS011;47726;52.766;6.606;2023-03-14T07:21:24;5.10;;;3.10;;
61806;SDS011;47726;52.766;6.606;2023-03-14T07:23:49;5.28;;;2.70;;
61806;SDS011;47726;52.766;6.606;2023-03-14T07:26:15;4.82;;;2.10;;
61806;SDS011;47726;52.766;6.606;2023-03-14T07:28:41;4.25;;;2.13;;
61806;SDS011;47726;52.766;6.606;2023-03-14T07:31:06;5.25;;;1.98;;
61806;SDS011;47726;52.766;6.606;2023-03-14T07:33:32;6.63;;;2.10;;
61806;SDS011;47726;52.766;6.606;2023-03-14T07:35:58;5.47;;;2.30;;
61806;SDS011;47726;52.766;6.606;2023-03-14T07:38:24;7.18;;;2.47;;
61806;SDS011;47726;52.766;6.606;2023-03-14T07:40:49;5.47;;;2.40;;
61806;SDS011;47726;52.766;6.606;2023-03-14T07:43:15;5.90;;;2.00;;
61806;SDS011;47726;52.766;6.606;2023-03-14T07:45:41;4.28;;;1.98;;
61806;SDS011;47726;52.766;6.606;2023-03-14T07:48:10;5.18;;;1.77;;
61806;SDS011;47726;52.766;6.606;2023-03-14T07:50:35;7.28;;;1.98;;
61806;SDS011;47726;52.766;6.606;2023-03-14T07:53:01;5.38;;;1.60;;
61806;SDS011;47726;52.766;6.606;2023-03-14T07:55:26;7.63;;;1.70;;
61806;SDS011;47726;52.766;6.606;2023-03-14T07:57:52;7.75;;;2.00;;
61806;SDS011;47726;52.766;6.606;2023-03-14T08:00:17;6.75;;;1.67;;
61806;SDS011;47726;52.766;6.606;2023-03-14T08:02:43;6.07;;;2.00;;
61806;SDS011;47726;52.766;6.606;2023-03-14T08:05:09;4.43;;;1.60;;
61806;SDS011;47726;52.766;6.606;2023-03-14T08:07:35;4.50;;;1.48;;
61806;SDS011;47726;52.766;6.606;2023-03-14T08:10:01;5.38;;;1.60;;
61806;SDS011;47726;52.766;6.606;2023-03-14T08:12:27;6.35;;;1.40;;
61806;SDS011;47726;52.766;6.606;2023-03-14T08:14:52;4.07;;;1.30;;
61806;SDS011;47726;52.766;6.606;2023-03-14T08:17:18;5.10;;;1.52;;
61806;SDS011;47726;52.766;6.606;2023-03-14T08:19:44;4.43;;;1.73;;
61806;SDS011;47726;52.766;6.606;2023-03-14T08:22:09;3.97;;;1.70;;
61806;SDS011;47726;52.766;6.606;2023-03-14T08:24:35;3.03;;;1.52;;
61806;SDS011;47726;52.766;6.606;2023-03-14T08:27:00;5.60;;;2.20;;
61806;SDS011;47726;52.766;6.606;2023-03-14T08:29:26;3.17;;;1.60;;
61806;SDS011;47726;52.766;6.606;2023-03-14T08:31:51;2.90;;;1.55;;
61806;SDS011;47726;52.766;6.606;2023-03-14T08:34:18;5.60;;;1.70;;
61806;SDS011;47726;52.766;6.606;2023-03-14T08:36:44;3.80;;;1.85;;
61806;SDS011;47726;52.766;6.606;2023-03-14T08:39:10;3.10;;;1.60;;
61806;SDS011;47726;52.766;6.606;2023-03-14T08:41:35;5.63;;;1.73;;
61806;SDS011;47726;52.766;6.606;2023-03-14T08:44:06;5.05;;;1.90;;
61806;SDS011;47726;52.766;6.606;2023-03-14T08:46:32;5.72;;;2.08;;
61806;SDS011;47726;52.766;6.606;2023-03-14T08:48:58;4.43;;;2.00;;
61806;SDS011;47726;52.766;6.606;2023-03-14T08:51:23;5.30;;;1.90;;
61806;SDS011;47726;52.766;6.606;2023-03-14T08:53:49;4.70;;;1.85;;
61806;SDS011;47726;52.766;6.606;2023-03-14T08:56:15;6.32;;;2.08;;
61806;SDS011;47726;52.766;6.606;2023-03-14T08:58:41;5.18;;;1.70;;
61806;SDS011;47726;52.766;6.606;2023-03-14T09:01:08;7.97;;;2.10;;
61806;SDS011;47726;52.766;6.606;2023-03-14T09:03:35;3.92;;;1.60;;
61806;SDS011;47726;52.766;6.606;2023-03-14T09:06:02;4.45;;;1.90;;
61806;SDS011;47726;52.766;6.606;2023-03-14T09:08:31;7.28;;;2.10;;
61806;SDS011;47726;52.766;6.606;2023-03-14T09:10:58;4.97;;;1.80;;
61806;SDS011;47726;52.766;6.606;2023-03-14T09:13:24;5.18;;;1.90;;
61806;SDS011;47726;52.766;6.606;2023-03-14T09:15:50;6.88;;;2.20;;
61806;SDS011;47726;52.766;6.606;2023-03-14T09:18:20;6.15;;;2.00;;
61806;SDS011;47726;52.766;6.606;2023-03-14T09:20:45;6.72;;;2.20;;
61806;SDS011;47726;52.766;6.606;2023-03-14T09:23:11;5.85;;;2.00;;
61806;SDS011;47726;52.766;6.606;2023-03-14T09:25:37;8.63;;;2.17;;
61806;SDS011;47726;52.766;6.606;2023-03-14T09:28:02;6.80;;;2.00;;
61806;SDS011;47726;52.766;6.606;2023-03-14T09:30:28;8.20;;;2.30;;
61806;SDS011;47726;52.766;6.606;2023-03-14T09:32:54;10.82;;;2.40;;
61806;SDS011;47726;52.766;6.606;2023-03-14T09:35:20;9.65;;;2.38;;
61806;SDS011;47726;52.766;6.606;2023-03-14T09:37:45;12.43;;;2.58;;
61806;SDS011;47726;52.766;6.606;2023-03-14T09:40:17;12.98;;;2.60;;
61806;SDS011;47726;52.766;6.606;2023-03-14T09:42:45;12.25;;;2.80;;
61806;SDS011;47726;52.766;6.606;2023-03-14T09:45:17;15.00;;;3.08;;
61806;SDS011;47726;52.766;6.606;2023-03-14T09:48:05;6.80;;;2.35;;
61806;SDS011;47726;52.766;6.606;2023-03-14T09:50:41;10.98;;;2.58;;
61806;SDS011;47726;52.766;6.606;2023-03-14T09:53:11;14.30;;;2.92;;
61806;SDS011;47726;52.766;6.606;2023-03-14T09:55:41;11.15;;;2.90;;
61806;SDS011;47726;52.766;6.606;2023-03-14T09:58:16;15.55;;;3.45;;
61806;SDS011;47726;52.766;6.606;2023-03-14T10:00:44;15.65;;;3.40;;
61806;SDS011;47726;52.766;6.606;2023-03-14T10:05:42;15.15;;;3.35;;
61806;SDS011;47726;52.766;6.606;2023-03-14T10:08:11;17.98;;;3.63;;
61806;SDS011;47726;52.766;6.606;2023-03-14T10:10:38;20.20;;;3.95;;
61806;SDS011;47726;52.766;6.606;2023-03-14T10:13:21;15.43;;;3.47;;
61806;SDS011;47726;52.766;6.606;2023-03-14T10:16:02;18.75;;;4.00;;
61806;SDS011;47726;52.766;6.606;2023-03-14T10:18:31;19.65;;;3.60;;
61806;SDS011;47726;52.766;6.606;2023-03-14T10:23:53;21.77;;;3.65;;
61806;SDS011;47726;52.766;6.606;2023-03-14T10:26:28;22.55;;;3.83;;
61806;SDS011;47726;52.766;6.606;2023-03-14T10:29:11;18.90;;;3.53;;
61806;SDS011;47726;52.766;6.606;2023-03-14T10:34:15;20.60;;;4.30;;
61806;SDS011;47726;52.766;6.606;2023-03-14T10:36:42;20.98;;;4.40;;
61806;SDS011;47726;52.766;6.606;2023-03-14T10:41:46;25.92;;;4.40;;
61806;SDS011;47726;52.766;6.606;2023-03-14T10:44:19;19.90;;;4.05;;
61806;SDS011;47726;52.766;6.606;2023-03-14T10:47:01;22.13;;;3.80;;
61806;SDS011;47726;52.766;6.606;2023-03-14T10:49:32;23.95;;;4.20;;
61806;SDS011;47726;52.766;6.606;2023-03-14T10:54:37;26.88;;;4.35;;
61806;SDS011;47726;52.766;6.606;2023-03-14T10:57:03;24.27;;;4.35;;
61806;SDS011;47726;52.766;6.606;2023-03-14T10:59:37;23.88;;;4.22;;
61806;SDS011;47726;52.766;6.606;2023-03-14T11:07:43;18.70;;;3.70;;
61806;SDS011;47726;52.766;6.606;2023-03-14T11:10:14;19.75;;;3.88;;
61806;SDS011;47726;52.766;6.606;2023-03-14T11:15:58;25.15;;;4.88;;
61806;SDS011;47726;52.766;6.606;2023-03-14T11:18:51;18.70;;;3.70;;
61806;SDS011;47726;52.766;6.606;2023-03-14T11:21:52;16.40;;;3.70;;
61806;SDS011;47726;52.766;6.606;2023-03-14T11:25:04;17.83;;;2.97;;
61806;SDS011;47726;52.766;6.606;2023-03-14T11:30:53;20.20;;;3.20;;
61806;SDS011;47726;52.766;6.606;2023-03-14T11:35:55;13.95;;;3.00;;
61806;SDS011;47726;52.766;6.606;2023-03-14T11:41:02;18.30;;;3.03;;
61806;SDS011;47726;52.766;6.606;2023-03-14T11:43:35;18.25;;;4.03;;
61806;SDS011;47726;52.766;6.606;2023-03-14T11:46:10;12.10;;;2.80;;
61806;SDS011;47726;52.766;6.606;2023-03-14T11:49:06;13.45;;;3.33;;
61806;SDS011;47726;52.766;6.606;2023-03-14T11:51:52;13.63;;;2.88;;
61806;SDS011;47726;52.766;6.606;2023-03-14T11:54:39;13.10;;;2.70;;
61806;SDS011;47726;52.766;6.606;2023-03-14T11:57:12;10.80;;;2.50;;
61806;SDS011;47726;52.766;6.606;2023-03-14T12:10:29;12.32;;;2.60;;
61806;SDS011;47726;52.766;6.606;2023-03-14T12:12:54;11.95;;;2.60;;
61806;SDS011;47726;52.766;6.606;2023-03-14T12:15:21;12.07;;;2.50;;
61806;SDS011;47726;52.766;6.606;2023-03-14T12:17:53;10.05;;;2.53;;
61806;SDS011;47726;52.766;6.606;2023-03-14T12:22:56;12.38;;;2.65;;
61806;SDS011;47726;52.766;6.606;2023-03-14T12:25:32;9.55;;;2.20;;
61806;SDS011;47726;52.766;6.606;2023-03-14T12:30:30;9.18;;;2.38;;
61806;SDS011;47726;52.766;6.606;2023-03-14T12:35:45;8.60;;;2.47;;
61806;SDS011;47726;52.766;6.606;2023-03-14T12:41:20;10.15;;;2.50;;
61806;SDS011;47726;52.766;6.606;2023-03-14T12:43:51;10.32;;;2.05;;
61806;SDS011;47726;52.766;6.606;2023-03-14T12:48:46;9.15;;;2.33;;
61806;SDS011;47726;52.766;6.606;2023-03-14T12:51:15;7.68;;;2.28;;
61806;SDS011;47726;52.766;6.606;2023-03-14T13:07:11;13.90;;;2.45;;
61806;SDS011;47726;52.766;6.606;2023-03-14T13:10:00;13.43;;;4.55;;
61806;SDS011;47726;52.766;6.606;2023-03-14T13:12:48;15.90;;;5.30;;
61806;SDS011;47726;52.766;6.606;2023-03-14T13:15:40;19.02;;;7.35;;
61806;SDS011;47726;52.766;6.606;2023-03-14T13:18:17;16.35;;;5.97;;
61806;SDS011;47726;52.766;6.606;2023-03-14T13:23:24;13.25;;;3.30;;
61806;SDS011;47726;52.766;6.606;2023-03-14T13:25:51;12.70;;;3.83;;
61806;SDS011;47726;52.766;6.606;2023-03-14T13:28:17;11.52;;;3.65;;
61806;SDS011;47726;52.766;6.606;2023-03-14T13:30:47;12.80;;;4.03;;
61806;SDS011;47726;52.766;6.606;2023-03-14T13:33:18;15.35;;;4.10;;
61806;SDS011;47726;52.766;6.606;2023-03-14T13:35:47;9.57;;;3.00;;
61806;SDS011;47726;52.766;6.606;2023-03-14T13:38:20;8.95;;;3.05;;
61806;SDS011;47726;52.766;6.606;2023-03-14T13:40:48;8.52;;;2.60;;
61806;SDS011;47726;52.766;6.606;2023-03-14T13:46:03;9.82;;;2.58;;
61806;SDS011;47726;52.766;6.606;2023-03-14T13:48:30;8.60;;;2.30;;
61806;SDS011;47726;52.766;6.606;2023-03-14T13:51:01;8.27;;;2.47;;
61806;SDS011;47726;52.766;6.606;2023-03-14T13:53:31;6.93;;;1.98;;
61806;SDS011;47726;52.766;6.606;2023-03-14T13:56:08;5.95;;;2.00;;
61806;SDS011;47726;52.766;6.606;2023-03-14T13:58:36;7.13;;;2.38;;
61806;SDS011;47726;52.766;6.606;2023-03-14T14:03:36;9.55;;;2.00;;
61806;SDS011;47726;52.766;6.606;2023-03-14T14:06:04;9.65;;;2.53;;
61806;SDS011;47726;52.766;6.606;2023-03-14T14:08:56;8.13;;;2.50;;
61806;SDS011;47726;52.766;6.606;2023-03-14T14:13:52;9.43;;;2.60;;
61806;SDS011;47726;52.766;6.606;2023-03-14T14:16:18;11.32;;;3.08;;
61806;SDS011;47726;52.766;6.606;2023-03-14T14:18:49;10.40;;;2.50;;
61806;SDS011;47726;52.766;6.606;2023-03-14T14:21:17;7.63;;;2.05;;
61806;SDS011;47726;52.766;6.606;2023-03-14T14:23:43;9.80;;;2.30;;
61806;SDS011;47726;52.766;6.606;2023-03-14T14:26:13;9.23;;;2.40;;
61806;SDS011;47726;52.766;6.606;2023-03-14T14:28:41;9.15;;;2.10;;
61806;SDS011;47726;52.766;6.606;2023-03-14T14:36:22;8.10;;;2.03;;
61806;SDS011;47726;52.766;6.606;2023-03-14T14:39:38;9.40;;;2.50;;
61806;SDS011;47726;52.766;6.606;2023-03-14T14:41:44;8.75;;;2.50;;
61806;SDS011;47726;52.766;6.606;2023-03-14T14:44:14;6.70;;;2.00;;
61806;SDS011;47726;52.766;6.606;2023-03-14T14:46:43;10.38;;;2.22;;
61806;SDS011;47726;52.766;6.606;2023-03-14T14:49:10;8.48;;;2.20;;
61806;SDS011;47726;52.766;6.606;2023-03-14T14:51:49;7.53;;;2.03;;
61806;SDS011;47726;52.766;6.606;2023-03-14T14:54:16;8.35;;;2.30;;
61806;SDS011;47726;52.766;6.606;2023-03-14T14:56:50;7.90;;;2.38;;
61806;SDS011;47726;52.766;6.606;2023-03-14T14:59:27;7.05;;;2.42;;
61806;SDS011;47726;52.766;6.606;2023-03-14T15:02:00;9.25;;;2.30;;
61806;SDS011;47726;52.766;6.606;2023-03-14T15:04:30;11.70;;;2.20;;
61806;SDS011;47726;52.766;6.606;2023-03-14T15:06:56;10.50;;;2.50;;
61806;SDS011;47726;52.766;6.606;2023-03-14T15:09:22;11.70;;;2.58;;
61806;SDS011;47726;52.766;6.606;2023-03-14T15:11:48;10.27;;;2.20;;
61806;SDS011;47726;52.766;6.606;2023-03-14T15:14:14;10.18;;;2.42;;
61806;SDS011;47726;52.766;6.606;2023-03-14T15:16:39;11.10;;;2.60;;
61806;SDS011;47726;52.766;6.606;2023-03-14T15:19:15;8.40;;;2.10;;
61806;SDS011;47726;52.766;6.606;2023-03-14T15:21:46;11.45;;;2.25;;
61806;SDS011;47726;52.766;6.606;2023-03-14T15:24:12;6.80;;;2.25;;
61806;SDS011;47726;52.766;6.606;2023-03-14T15:26:37;11.38;;;2.30;;
61806;SDS011;47726;52.766;6.606;2023-03-14T15:29:03;7.53;;;2.13;;
61806;SDS011;47726;52.766;6.606;2023-03-14T15:31:32;7.07;;;2.20;;
61806;SDS011;47726;52.766;6.606;2023-03-14T15:33:59;6.00;;;1.92;;
61806;SDS011;47726;52.766;6.606;2023-03-14T15:36:29;8.65;;;2.25;;
61806;SDS011;47726;52.766;6.606;2023-03-14T15:38:57;7.85;;;2.25;;
61806;SDS011;47726;52.766;6.606;2023-03-14T15:41:24;6.30;;;2.00;;
61806;SDS011;47726;52.766;6.606;2023-03-14T15:43:50;6.55;;;1.92;;
61806;SDS011;47726;52.766;6.606;2023-03-14T15:46:16;7.10;;;1.90;;
61806;SDS011;47726;52.766;6.606;2023-03-14T15:48:46;9.60;;;2.13;;
61806;SDS011;47726;52.766;6.606;2023-03-14T15:51:12;9.95;;;2.30;;
61806;SDS011;47726;52.766;6.606;2023-03-14T15:53:38;9.82;;;2.30;;
61806;SDS011;47726;52.766;6.606;2023-03-14T15:56:05;12.25;;;2.83;;
61806;SDS011;47726;52.766;6.606;2023-03-14T15:58:32;10.45;;;2.28;;
61806;SDS011;47726;52.766;6.606;2023-03-14T16:00:59;6.63;;;2.40;;
61806;SDS011;47726;52.766;6.606;2023-03-14T16:03:26;13.35;;;2.88;;
61806;SDS011;47726;52.766;6.606;2023-03-14T16:05:52;11.23;;;2.60;;
61806;SDS011;47726;52.766;6.606;2023-03-14T16:08:18;12.25;;;2.50;;
61806;SDS011;47726;52.766;6.606;2023-03-14T16:10:44;10.73;;;2.65;;
61806;SDS011;47726;52.766;6.606;2023-03-14T16:13:11;10.52;;;2.40;;